Time;durP1;ratioP1;P1;durP2;ratioP2;P2;SDS_P1;SDS_P2;PMS_P1;PMS_P2;Temp;Humidity;BMP_temperature;BMP_pressure;BME280_temperature;BME280_humidity;BME280_pressure;Samples;Min_cycle;Max_cycle;Signal;HPM_P1;HPM_P2
2020/12/07 00:01:48;;;;;;;3.20;3.00;;;19.40;41.30;;;;;;5029603;28;20071;-45
2020/12/07 00:04:14;;;;;;;3.38;2.95;;;19.30;41.40;;;;;;5051184;28;20103;-47
2020/12/07 00:06:40;;;;;;;3.33;3.00;;;19.30;41.40;;;;;;5046972;28;20025;-49
2020/12/07 00:09:06;;;;;;;3.90;3.28;;;19.30;41.40;;;;;;5047855;28;20111;-47
2020/12/07 00:11:33;;;;;;;3.55;3.25;;;19.30;41.50;;;;;;5025443;28;20074;-49
2020/12/07 00:13:59;;;;;;;2.72;2.53;;;19.30;41.50;;;;;;5030670;28;20033;-50
2020/12/07 00:16:25;;;;;;;4.10;3.13;;;19.20;41.50;;;;;;5046392;28;20375;-49
2020/12/07 00:18:51;;;;;;;4.55;3.45;;;19.20;41.60;;;;;;5047086;28;20037;-46
2020/12/07 00:21:16;;;;;;;3.33;3.03;;;19.20;41.60;;;;;;5046848;28;20145;-46
2020/12/07 00:23:42;;;;;;;3.10;2.78;;;19.20;41.50;;;;;;5050652;28;20043;-50
2020/12/07 00:26:10;;;;;;;2.80;2.58;;;19.20;41.50;;;;;;5044334;28;20029;-48
2020/12/07 00:28:36;;;;;;;3.05;2.75;;;19.20;41.60;;;;;;5048457;28;20854;-47
2020/12/07 00:31:03;;;;;;;4.10;2.88;;;19.20;41.60;;;;;;5046978;28;20064;-46
2020/12/07 00:33:29;;;;;;;3.25;2.85;;;19.10;41.60;;;;;;5048135;28;20017;-47
2020/12/07 00:35:54;;;;;;;3.47;3.17;;;19.10;41.60;;;;;;5048369;28;20405;-48
2020/12/07 00:38:20;;;;;;;3.47;2.67;;;19.10;41.60;;;;;;5047646;28;20029;-49
2020/12/07 00:40:45;;;;;;;4.85;3.25;;;19.10;41.60;;;;;;5040566;28;20639;-47
2020/12/07 00:43:11;;;;;;;4.40;3.40;;;19.10;41.60;;;;;;5042107;28;20098;-47
2020/12/07 00:45:36;;;;;;;4.53;2.75;;;19.10;41.60;;;;;;5046233;28;20308;-48
2020/12/07 00:48:02;;;;;;;3.25;2.35;;;19.10;41.70;;;;;;5050407;28;20051;-48
2020/12/07 00:50:28;;;;;;;2.88;2.28;;;19.10;41.70;;;;;;5026908;28;20033;-46
2020/12/07 00:52:53;;;;;;;3.35;3.03;;;19.10;41.70;;;;;;5044681;28;20029;-48
2020/12/07 00:55:19;;;;;;;3.20;2.83;;;19.10;41.70;;;;;;5049708;28;20143;-48
2020/12/07 00:57:44;;;;;;;3.33;2.55;;;19.00;41.70;;;;;;5055608;28;20040;-47
2020/12/07 01:00:11;;;;;;;2.78;2.58;;;19.00;41.60;;;;;;5053104;28;20029;-47
2020/12/07 01:02:36;;;;;;;3.45;2.97;;;19.00;41.70;;;;;;5050385;28;20485;-47
2020/12/07 01:05:03;;;;;;;2.90;2.47;;;19.00;41.70;;;;;;5048725;28;20095;-48
2020/12/07 01:07:28;;;;;;;3.28;2.92;;;19.00;41.70;;;;;;5050191;28;20056;-47
2020/12/07 01:09:54;;;;;;;2.58;2.38;;;19.00;41.70;;;;;;5048025;28;20508;-49
2020/12/07 01:12:19;;;;;;;3.17;2.45;;;19.00;41.80;;;;;;5042668;28;20026;-47
2020/12/07 01:14:46;;;;;;;3.40;3.10;;;19.00;41.80;;;;;;5049777;28;20029;-48
2020/12/07 01:17:12;;;;;;;2.92;2.67;;;19.00;41.70;;;;;;5047226;28;20021;-47
2020/12/07 01:19:38;;;;;;;3.45;2.83;;;19.00;41.60;;;;;;5049820;28;20051;-47
2020/12/07 01:22:03;;;;;;;2.45;2.20;;;19.00;41.60;;;;;;5030460;28;20041;-47
2020/12/07 01:24:29;;;;;;;2.97;2.78;;;19.00;41.70;;;;;;5049313;28;20405;-47
2020/12/07 01:26:54;;;;;;;2.65;2.30;;;19.00;41.60;;;;;;5048987;28;20633;-48
2020/12/07 01:29:20;;;;;;;3.63;2.33;;;18.90;41.70;;;;;;5047496;28;20497;-49
2020/12/07 01:31:46;;;;;;;3.22;2.63;;;18.90;41.60;;;;;;5047989;28;20489;-48
2020/12/07 01:34:11;;;;;;;2.35;2.15;;;18.90;41.70;;;;;;5049979;28;20651;-47
2020/12/07 01:36:37;;;;;;;2.50;2.30;;;18.90;41.70;;;;;;5050103;28;20056;-48
2020/12/07 01:39:03;;;;;;;3.22;2.45;;;18.90;41.70;;;;;;5049169;28;20025;-48
2020/12/07 01:41:28;;;;;;;3.22;2.70;;;18.90;41.70;;;;;;5045890;28;20405;-48
2020/12/07 01:43:54;;;;;;;3.38;2.30;;;18.90;41.70;;;;;;5050394;28;20074;-50
2020/12/07 01:46:22;;;;;;;3.03;2.50;;;18.90;41.70;;;;;;5044483;28;20033;-45
2020/12/07 01:48:48;;;;;;;2.90;2.47;;;18.90;41.70;;;;;;5049854;28;20033;-46
2020/12/07 01:51:17;;;;;;;3.65;2.75;;;18.90;41.70;;;;;;5046815;28;20029;-48
2020/12/07 01:53:43;;;;;;;2.38;2.00;;;18.90;41.70;;;;;;5030665;28;20033;-47
2020/12/07 01:56:12;;;;;;;2.70;2.50;;;18.90;41.70;;;;;;5050873;28;20043;-47
2020/12/07 01:58:40;;;;;;;2.75;2.22;;;18.80;41.70;;;;;;5047067;28;20058;-48
2020/12/07 02:01:05;;;;;;;2.55;2.17;;;18.80;41.60;;;;;;5048229;28;20393;-48
2020/12/07 02:03:31;;;;;;;3.05;2.40;;;18.80;41.60;;;;;;5048420;28;20037;-47
2020/12/07 02:05:57;;;;;;;2.83;2.15;;;18.80;41.60;;;;;;5049253;28;20579;-48
2020/12/07 02:08:23;;;;;;;2.40;2.20;;;18.80;41.60;;;;;;5048022;28;20539;-48
2020/12/07 02:10:48;;;;;;;2.53;2.33;;;18.80;41.60;;;;;;5051524;28;20025;-48
2020/12/07 02:13:14;;;;;;;2.13;1.70;;;18.80;41.60;;;;;;5049367;28;20029;-47
2020/12/07 02:15:41;;;;;;;2.08;1.88;;;18.80;41.60;;;;;;5047724;28;20114;-47
2020/12/07 02:18:07;;;;;;;2.58;1.92;;;18.80;41.50;;;;;;5023184;28;20037;-48
2020/12/07 02:20:34;;;;;;;2.75;2.55;;;18.80;41.50;;;;;;5047128;28;20091;-47
2020/12/07 02:22:59;;;;;;;3.15;2.00;;;18.80;41.50;;;;;;5049481;28;20021;-48
2020/12/07 02:25:25;;;;;;;1.92;1.67;;;18.80;41.50;;;;;;5047315;28;20559;-49
2020/12/07 02:27:52;;;;;;;2.05;1.60;;;18.80;41.50;;;;;;5047820;28;20558;-48
2020/12/07 02:30:19;;;;;;;2.85;2.20;;;18.80;41.50;;;;;;5035303;28;20028;-47
2020/12/07 02:32:45;;;;;;;2.30;2.03;;;18.80;41.50;;;;;;5029914;28;20025;-49
2020/12/07 02:35:12;;;;;;;3.63;2.40;;;18.80;41.50;;;;;;5030137;28;20496;-46
2020/12/07 02:37:38;;;;;;;1.73;1.63;;;18.70;41.40;;;;;;5047831;28;20142;-48
2020/12/07 02:40:05;;;;;;;3.67;1.88;;;18.80;41.50;;;;;;5049150;28;20029;-49
2020/12/07 02:42:35;;;;;;;2.80;1.83;;;18.80;41.50;;;;;;5030160;28;20033;-48
2020/12/07 02:45:03;;;;;;;2.05;1.80;;;18.80;41.50;;;;;;5048689;28;20029;-47
2020/12/07 02:47:28;;;;;;;3.28;2.30;;;18.70;41.50;;;;;;5029982;28;20028;-49
2020/12/07 02:49:55;;;;;;;2.60;2.08;;;18.70;41.50;;;;;;5048227;28;20032;-46
2020/12/07 02:52:23;;;;;;;2.15;1.60;;;18.70;41.50;;;;;;5046539;28;20063;-49
2020/12/07 02:54:51;;;;;;;1.98;1.55;;;18.70;41.50;;;;;;5049071;28;20017;-47
2020/12/07 02:57:17;;;;;;;1.70;1.60;;;18.70;41.40;;;;;;5049075;28;20025;-49
2020/12/07 02:59:42;;;;;;;2.08;1.70;;;18.80;41.40;;;;;;5049480;28;20058;-49
2020/12/07 03:02:08;;;;;;;2.50;1.90;;;18.70;41.40;;;;;;5028955;28;20029;-47
2020/12/07 03:04:33;;;;;;;2.15;1.77;;;18.70;41.50;;;;;;5045608;28;20032;-48
2020/12/07 03:06:59;;;;;;;1.70;1.60;;;18.70;41.50;;;;;;5046623;28;20401;-48
2020/12/07 03:09:24;;;;;;;2.38;1.90;;;18.70;41.50;;;;;;5046098;28;20025;-48
2020/12/07 03:11:50;;;;;;;2.03;1.83;;;18.70;41.50;;;;;;5049510;28;20021;-49
2020/12/07 03:14:17;;;;;;;1.67;1.50;;;18.70;41.50;;;;;;5028555;28;20033;-49
2020/12/07 03:16:42;;;;;;;2.10;1.90;;;18.70;41.50;;;;;;5047951;28;20040;-47
2020/12/07 03:19:10;;;;;;;2.05;1.85;;;18.60;41.40;;;;;;5047456;28;20033;-48
2020/12/07 03:21:36;;;;;;;1.40;1.20;;;18.60;41.40;;;;;;5047588;28;20039;-48
2020/12/07 03:24:01;;;;;;;1.98;1.65;;;18.70;41.20;;;;;;5044510;28;20502;-49
2020/12/07 03:26:27;;;;;;;1.63;1.15;;;18.60;41.30;;;;;;5025998;28;20075;-49
2020/12/07 03:28:53;;;;;;;1.90;1.63;;;18.70;41.40;;;;;;5046557;28;20037;-46
2020/12/07 03:31:18;;;;;;;1.92;1.17;;;18.60;41.60;;;;;;5048166;28;20036;-46
2020/12/07 03:33:44;;;;;;;1.55;1.30;;;18.60;41.30;;;;;;5029256;28;20048;-48
2020/12/07 03:36:09;;;;;;;2.30;1.60;;;18.60;41.40;;;;;;5047205;28;20504;-48
2020/12/07 03:38:35;;;;;;;1.98;1.58;;;18.60;41.40;;;;;;5046497;28;20037;-49
2020/12/07 03:41:00;;;;;;;1.63;1.52;;;18.60;41.40;;;;;;5047040;22;20044;-45
2020/12/07 03:43:26;;;;;;;2.28;1.88;;;18.60;41.40;;;;;;5038025;28;20371;-48
2020/12/07 03:45:52;;;;;;;1.92;1.83;;;18.60;41.50;;;;;;5044088;28;20032;-47
2020/12/07 03:48:17;;;;;;;1.63;1.40;;;18.60;41.40;;;;;;5046773;28;20043;-46
2020/12/07 03:50:43;;;;;;;1.73;1.42;;;18.60;41.50;;;;;;5051441;28;20031;-50
2020/12/07 03:53:08;;;;;;;1.73;1.63;;;18.60;41.50;;;;;;5062801;28;20028;-46
2020/12/07 03:55:34;;;;;;;1.58;1.48;;;18.60;41.50;;;;;;5064376;28;20033;-47
2020/12/07 03:57:59;;;;;;;1.40;1.30;;;18.60;41.40;;;;;;5065336;28;20028;-46
2020/12/07 04:00:25;;;;;;;1.67;1.50;;;18.60;41.40;;;;;;5064969;28;20028;-49
2020/12/07 04:02:51;;;;;;;2.47;1.58;;;18.60;41.40;;;;;;5062228;28;20065;-47
2020/12/07 04:05:28;;;;;;;1.80;1.15;;;18.60;41.50;;;;;;5064170;28;20036;-47
2020/12/07 04:07:53;;;;;;;1.50;1.25;;;18.60;41.50;;;;;;5067408;28;20040;-48
2020/12/07 04:10:19;;;;;;;1.38;1.02;;;18.50;41.50;;;;;;5062890;28;20074;-48
2020/12/07 04:12:45;;;;;;;1.30;1.17;;;18.50;41.50;;;;;;5068059;28;20465;-46
2020/12/07 04:15:11;;;;;;;1.67;1.48;;;18.50;41.40;;;;;;5060167;28;20020;-46
2020/12/07 04:17:36;;;;;;;1.77;1.67;;;18.60;41.50;;;;;;5065227;28;20037;-47
2020/12/07 04:20:02;;;;;;;1.92;1.08;;;18.50;41.40;;;;;;5067864;28;20020;-45
2020/12/07 04:22:28;;;;;;;1.60;1.20;;;18.50;41.30;;;;;;5067055;28;20043;-47
2020/12/07 04:24:53;;;;;;;1.80;1.70;;;18.60;41.30;;;;;;5065218;28;20493;-46
2020/12/07 04:27:19;;;;;;;1.30;1.20;;;18.60;41.30;;;;;;5066540;28;20468;-49
2020/12/07 04:29:45;;;;;;;1.15;0.90;;;18.50;41.20;;;;;;5063429;28;20533;-51
2020/12/07 04:32:10;;;;;;;1.58;1.48;;;18.50;41.20;;;;;;5070179;28;20153;-47
2020/12/07 04:34:36;;;;;;;1.70;1.60;;;18.50;41.30;;;;;;5068772;28;20107;-47
2020/12/07 04:37:01;;;;;;;1.83;1.10;;;18.50;41.30;;;;;;5071433;28;20118;-46
2020/12/07 04:39:27;;;;;;;2.17;1.23;;;18.50;41.30;;;;;;5067651;28;20408;-47
2020/12/07 04:41:52;;;;;;;1.50;1.40;;;18.50;41.40;;;;;;5067642;28;20083;-47
2020/12/07 04:44:18;;;;;;;1.50;1.05;;;18.50;41.40;;;;;;5068110;28;20024;-47
2020/12/07 04:46:46;;;;;;;1.77;1.10;;;18.50;41.40;;;;;;5071326;28;20033;-48
2020/12/07 04:49:14;;;;;;;1.85;1.45;;;18.50;41.40;;;;;;5067488;28;20039;-49
2020/12/07 04:51:41;;;;;;;1.83;1.73;;;18.50;41.40;;;;;;5067197;28;20051;-47
2020/12/07 04:54:08;;;;;;;1.40;1.10;;;18.50;41.50;;;;;;5057457;28;20025;-49
2020/12/07 04:56:35;;;;;;;1.40;1.15;;;18.50;41.40;;;;;;5070490;28;20036;-47
2020/12/07 04:59:01;;;;;;;3.10;1.48;;;18.50;41.50;;;;;;5068073;28;20489;-49
2020/12/07 05:01:27;;;;;;;1.55;1.25;;;18.50;41.40;;;;;;5070658;28;20063;-51
2020/12/07 05:03:53;;;;;;;1.63;1.17;;;18.50;41.40;;;;;;5058945;28;20467;-47
2020/12/07 05:06:22;;;;;;;1.75;1.27;;;18.50;41.40;;;;;;5069315;28;20393;-44
2020/12/07 05:08:47;;;;;;;1.80;1.70;;;18.40;41.40;;;;;;5067554;28;20112;-50
2020/12/07 05:11:13;;;;;;;1.75;1.17;;;18.50;41.40;;;;;;5070475;28;20100;-46
2020/12/07 05:16:05;;;;;;;1.48;1.23;;;18.50;41.40;;;;;;5068575;28;20024;-46
2020/12/07 05:18:35;;;;;;;1.45;1.35;;;18.50;41.50;;;;;;5051733;28;20042;-48
2020/12/07 05:21:03;;;;;;;2.95;1.58;;;18.40;41.30;;;;;;5048476;28;20029;-47
2020/12/07 05:23:33;;;;;;;1.92;1.50;;;18.50;41.30;;;;;;5070291;28;20032;-49
2020/12/07 05:26:01;;;;;;;2.13;1.92;;;18.50;41.30;;;;;;5067143;28;20025;-48
2020/12/07 05:28:35;;;;;;;1.65;1.40;;;18.40;41.20;;;;;;5051340;28;20541;-47
2020/12/07 05:31:01;;;;;;;1.45;1.30;;;18.50;41.30;;;;;;5066679;28;20094;-47
2020/12/07 05:33:28;;;;;;;1.50;1.40;;;18.40;41.30;;;;;;5070329;28;20477;-47
2020/12/07 05:35:56;;;;;;;2.03;1.20;;;18.50;41.30;;;;;;5067973;28;20031;-48
2020/12/07 05:38:30;;;;;;;1.42;1.33;;;18.40;41.30;;;;;;5069281;28;20028;-47
2020/12/07 05:40:57;;;;;;;1.95;1.10;;;18.40;41.40;;;;;;5067870;28;20054;-49
2020/12/07 05:43:24;;;;;;;1.65;1.55;;;18.40;41.30;;;;;;5068027;28;20555;-46
2020/12/07 05:45:51;;;;;;;1.98;1.77;;;18.40;41.30;;;;;;5059295;28;20124;-48
2020/12/07 05:48:18;;;;;;;1.88;1.65;;;18.40;41.30;;;;;;5068740;28;20028;-45
2020/12/07 05:50:46;;;;;;;1.67;1.20;;;18.40;41.50;;;;;;5067216;28;20410;-50
2020/12/07 05:53:11;;;;;;;1.27;1.17;;;18.40;41.50;;;;;;5059414;28;20110;-47
2020/12/07 05:55:37;;;;;;;1.27;0.95;;;18.50;41.30;;;;;;5062177;28;20604;-47
2020/12/07 05:58:05;;;;;;;1.58;1.40;;;18.70;41.10;;;;;;5062675;28;20037;-43
2020/12/07 06:00:33;;;;;;;1.38;1.08;;;18.80;40.90;;;;;;5066444;28;20048;-48
2020/12/07 06:03:01;;;;;;;1.15;0.95;;;18.90;40.60;;;;;;5069315;28;20029;-45
2020/12/07 06:05:26;;;;;;;1.60;1.40;;;19.00;40.40;;;;;;5066748;28;20033;-46
2020/12/07 06:08:09;;;;;;;1.88;1.25;;;19.10;40.40;;;;;;5067060;28;20028;-47
2020/12/07 06:10:42;;;;;;;1.52;1.17;;;19.20;40.30;;;;;;5063952;28;20028;-46
2020/12/07 06:13:13;;;;;;;1.35;1.00;;;19.30;40.20;;;;;;5068394;28;20051;-45
2020/12/07 06:15:47;;;;;;;1.67;1.38;;;19.30;40.10;;;;;;5059616;28;20089;-45
2020/12/07 06:18:35;;;;;;;1.20;0.95;;;19.30;40.00;;;;;;5062277;28;20033;-46
2020/12/07 06:21:05;;;;;;;1.42;1.20;;;19.40;40.00;;;;;;5060535;28;20057;-47
2020/12/07 06:23:33;;;;;;;1.55;1.23;;;19.40;40.00;;;;;;5070169;28;20041;-50
2020/12/07 06:26:00;;;;;;;1.80;1.17;;;19.50;40.00;;;;;;5040913;28;20432;-45
2020/12/07 06:28:30;;;;;;;1.38;1.27;;;19.50;40.00;;;;;;5067745;28;20086;-51
2020/12/07 06:31:02;;;;;;;1.38;1.25;;;19.50;40.00;;;;;;5067191;28;20396;-48
2020/12/07 06:33:28;;;;;;;1.05;0.93;;;19.60;39.90;;;;;;5064611;28;20027;-48
2020/12/07 06:35:56;;;;;;;1.45;1.15;;;19.60;39.90;;;;;;5067753;28;20028;-46
2020/12/07 06:38:22;;;;;;;2.10;1.25;;;19.70;39.80;;;;;;5067479;28;20043;-48
2020/12/07 06:40:52;;;;;;;1.55;1.17;;;19.70;39.80;;;;;;5062305;28;20028;-47
2020/12/07 06:43:22;;;;;;;1.90;1.33;;;19.80;39.70;;;;;;5066881;28;20512;-46
2020/12/07 06:45:48;;;;;;;1.95;1.35;;;19.80;39.60;;;;;;5067324;28;20081;-45
2020/12/07 06:48:18;;;;;;;1.52;1.30;;;19.80;39.60;;;;;;5064900;28;20063;-45
2020/12/07 06:50:45;;;;;;;1.50;1.38;;;19.90;39.60;;;;;;5065494;28;20071;-47
2020/12/07 06:53:52;;;;;;;1.50;1.40;;;19.90;39.60;;;;;;5065555;28;20523;-46
2020/12/07 06:56:11;;;;;;;1.40;1.30;;;19.90;39.60;;;;;;5054894;28;20063;-48
2020/12/07 06:58:38;;;;;;;2.22;1.75;;;19.90;40.20;;;;;;5064136;28;20063;-47
2020/12/07 07:01:15;;;;;;;3.22;1.15;;;20.00;39.70;;;;;;5066277;28;20032;-48
2020/12/07 07:03:55;;;;;;;1.60;1.50;;;20.00;39.70;;;;;;5068301;28;20032;-47
2020/12/07 07:06:23;;;;;;;3.05;1.70;;;20.00;39.70;;;;;;5065789;28;20051;-51
2020/12/07 07:08:49;;;;;;;1.92;1.63;;;20.00;39.70;;;;;;5067119;28;20035;-48
2020/12/07 07:11:15;;;;;;;1.95;1.60;;;20.00;39.70;;;;;;5067532;28;20436;-51
2020/12/07 07:13:48;;;;;;;2.13;1.83;;;20.00;39.70;;;;;;5068639;28;20116;-48
2020/12/07 07:16:16;;;;;;;2.03;1.83;;;20.00;39.70;;;;;;5063202;28;20096;-47
2020/12/07 07:18:42;;;;;;;1.90;1.50;;;20.00;39.70;;;;;;5064990;28;20040;-49
2020/12/07 07:21:08;;;;;;;1.98;1.77;;;20.00;39.80;;;;;;5067279;28;20614;-46
2020/12/07 07:23:37;;;;;;;2.50;2.30;;;19.90;39.90;;;;;;5065555;28;20641;-42
2020/12/07 07:26:27;;;;;;;1.85;1.63;;;19.90;40.10;;;;;;5066668;28;20063;-46
2020/12/07 07:28:52;;;;;;;11.35;2.25;;;19.90;40.50;;;;;;5066456;28;20039;-48
2020/12/07 07:31:18;;;;;;;1.63;1.27;;;19.80;40.80;;;;;;5064994;28;20056;-43
2020/12/07 07:33:45;;;;;;;2.08;1.88;;;19.80;40.90;;;;;;5063843;28;20059;-45
2020/12/07 07:36:24;;;;;;;2.28;2.03;;;19.80;40.90;;;;;;5063589;28;20025;-48
2020/12/07 07:38:54;;;;;;;2.50;2.28;;;19.70;41.00;;;;;;5060472;28;20032;-46
2020/12/07 07:41:23;;;;;;;3.33;2.55;;;19.70;41.00;;;;;;5064760;28;20433;-48
2020/12/07 07:43:50;;;;;;;3.05;2.63;;;19.70;40.90;;;;;;5061831;28;20036;-51
2020/12/07 07:46:16;;;;;;;3.70;3.30;;;19.60;40.90;;;;;;5065094;28;20090;-51
2020/12/07 07:48:58;;;;;;;3.00;2.80;;;19.60;41.00;;;;;;5065135;28;20029;-46
2020/12/07 07:57:37;;;;;;;5.80;4.85;;;19.50;40.90;;;;;;5062223;28;20032;-44
2020/12/07 08:11:44;;;;;;;3.00;2.70;;;19.60;40.70;;;;;;5064908;28;20460;-51
2020/12/07 08:16:23;;;;;;;4.65;3.20;;;19.80;40.90;;;;;;5056621;28;20037;-44
2020/12/07 08:18:53;;;;;;;3.33;2.65;;;19.80;40.80;;;;;;5058129;28;20029;-50
2020/12/07 08:21:32;;;;;;;3.47;2.75;;;19.80;41.00;;;;;;5060257;28;20404;-51
2020/12/07 08:24:05;;;;;;;3.83;2.63;;;19.90;40.90;;;;;;5060136;28;21058;-49
2020/12/07 08:26:32;;;;;;;6.50;2.45;;;20.00;40.70;;;;;;5065863;28;20478;-47
2020/12/07 08:28:59;;;;;;;3.00;2.78;;;20.10;40.70;;;;;;5062107;28;20067;-47
2020/12/07 08:31:24;;;;;;;3.30;3.00;;;20.20;40.50;;;;;;5060622;28;20108;-52
2020/12/07 08:34:14;;;;;;;2.95;2.75;;;20.40;40.40;;;;;;5064289;28;21212;-48
2020/12/07 08:36:45;;;;;;;2.92;2.70;;;20.50;40.20;;;;;;5063038;28;20158;-51
2020/12/07 08:39:10;;;;;;;2.38;2.17;;;20.50;40.00;;;;;;5061089;28;20047;-44
2020/12/07 08:41:36;;;;;;;3.53;2.92;;;20.50;40.30;;;;;;5062083;28;20033;-46
2020/12/07 08:44:10;;;;;;;3.33;3.00;;;20.50;40.30;;;;;;5061006;28;20040;-45
2020/12/07 08:46:38;;;;;;;3.00;2.45;;;20.40;40.40;;;;;;5062050;28;20036;-45
2020/12/07 08:49:05;;;;;;;3.00;2.80;;;20.40;40.60;;;;;;5058742;28;20033;-46
2020/12/07 08:51:33;;;;;;;3.25;2.95;;;20.50;40.60;;;;;;5039684;28;20089;-45
2020/12/07 08:53:59;;;;;;;2.58;2.38;;;20.60;40.50;;;;;;5059313;28;20025;-45
2020/12/07 08:56:25;;;;;;;3.67;2.47;;;20.60;40.30;;;;;;5058529;28;20044;-50
2020/12/07 08:58:51;;;;;;;2.95;2.65;;;20.60;40.30;;;;;;5060682;28;20029;-48
2020/12/07 09:01:16;;;;;;;11.32;2.88;;;20.70;40.40;;;;;;5059391;28;20424;-43
2020/12/07 09:03:43;;;;;;;2.95;2.75;;;20.70;40.50;;;;;;5059459;28;20057;-47
2020/12/07 09:06:11;;;;;;;3.33;3.03;;;20.70;40.50;;;;;;5061062;28;20025;-45
2020/12/07 09:08:37;;;;;;;3.15;2.75;;;20.80;40.50;;;;;;5060597;28;20566;-42
2020/12/07 09:11:04;;;;;;;3.55;2.58;;;20.80;40.40;;;;;;5063259;28;20032;-47
2020/12/07 09:13:30;;;;;;;3.00;2.75;;;20.80;40.30;;;;;;5060066;28;20032;-43
2020/12/07 09:15:56;;;;;;;3.38;2.60;;;20.80;40.10;;;;;;5058320;28;20024;-44
2020/12/07 09:18:21;;;;;;;3.80;3.50;;;20.90;40.10;;;;;;5067198;28;20040;-44
2020/12/07 09:20:48;;;;;;;3.47;2.90;;;20.90;40.00;;;;;;5070589;28;20024;-46
2020/12/07 09:23:13;;;;;;;3.00;2.67;;;21.00;40.50;;;;;;5068959;28;20031;-43
2020/12/07 09:25:39;;;;;;;2.80;2.60;;;21.00;39.90;;;;;;5061921;28;20032;-46
2020/12/07 09:28:04;;;;;;;4.03;2.95;;;21.00;39.90;;;;;;5051152;28;20063;-44
2020/12/07 09:30:31;;;;;;;3.30;2.95;;;21.00;39.80;;;;;;5071953;28;20028;-44
2020/12/07 09:32:57;;;;;;;3.55;3.20;;;21.00;39.80;;;;;;5070043;28;20032;-43
2020/12/07 09:35:22;;;;;;;2.97;2.78;;;21.00;39.90;;;;;;5067246;28;20245;-48
2020/12/07 09:37:48;;;;;;;3.35;3.05;;;21.00;40.00;;;;;;5069157;28;20032;-43
2020/12/07 09:40:14;;;;;;;2.95;2.67;;;21.00;40.00;;;;;;5079152;22;20055;-46
2020/12/07 09:42:40;;;;;;;3.10;2.80;;;21.00;39.90;;;;;;5024431;28;20033;-46
2020/12/07 09:45:10;;;;;;;3.22;2.92;;;21.00;39.90;;;;;;5021866;28;20575;-46
2020/12/07 09:47:37;;;;;;;3.50;3.20;;;21.10;39.80;;;;;;5030927;28;20037;-45
2020/12/07 09:50:07;;;;;;;3.47;3.17;;;21.10;39.80;;;;;;5033066;28;20489;-55
2020/12/07 09:52:33;;;;;;;3.25;2.95;;;21.20;39.80;;;;;;5029602;28;20085;-49
2020/12/07 09:54:59;;;;;;;2.83;2.35;;;21.30;39.90;;;;;;5031375;28;20300;-50
2020/12/07 09:57:24;;;;;;;3.05;2.63;;;21.30;40.00;;;;;;5033415;28;20064;-48
2020/12/07 09:59:50;;;;;;;4.40;2.90;;;21.40;39.80;;;;;;5031022;28;20021;-49
2020/12/07 10:02:16;;;;;;;2.80;2.60;;;21.50;39.70;;;;;;5033222;28;20291;-45
2020/12/07 10:04:42;;;;;;;3.17;2.83;;;21.50;39.90;;;;;;5031313;28;20128;-50
2020/12/07 10:07:08;;;;;;;3.45;3.15;;;21.50;39.90;;;;;;4999505;28;20037;-47
2020/12/07 10:09:34;;;;;;;2.67;2.47;;;21.50;39.80;;;;;;5031322;28;20041;-49
2020/12/07 10:11:59;;;;;;;3.25;3.05;;;21.50;39.80;;;;;;5029954;28;20053;-48
2020/12/07 10:14:25;;;;;;;3.47;3.17;;;21.50;40.00;;;;;;5028883;28;20029;-47
2020/12/07 10:16:50;;;;;;;3.03;2.72;;;21.50;40.10;;;;;;5031823;28;20029;-44
2020/12/07 10:19:16;;;;;;;3.60;3.17;;;21.50;40.30;;;;;;5026666;28;20125;-47
2020/12/07 10:21:42;;;;;;;3.17;2.92;;;21.50;40.20;;;;;;5021576;28;20034;-47
2020/12/07 10:24:07;;;;;;;3.10;2.80;;;21.50;40.30;;;;;;5026809;28;20393;-51
2020/12/07 10:26:33;;;;;;;3.85;2.97;;;21.50;40.20;;;;;;5029799;28;20139;-45
2020/12/07 10:28:59;;;;;;;3.00;2.80;;;21.60;40.20;;;;;;5026986;28;20033;-50
2020/12/07 10:31:25;;;;;;;3.47;3.17;;;21.60;40.20;;;;;;5028883;28;20025;-44
2020/12/07 10:33:52;;;;;;;3.85;3.17;;;21.60;40.20;;;;;;5013706;28;20040;-47
2020/12/07 10:36:19;;;;;;;4.10;3.70;;;21.70;40.30;;;;;;5026325;28;20030;-47
2020/12/07 10:38:45;;;;;;;3.28;2.97;;;21.70;40.20;;;;;;5012942;28;20517;-49
2020/12/07 10:41:13;;;;;;;3.08;2.85;;;21.70;40.10;;;;;;5030516;28;20040;-45
2020/12/07 10:43:39;;;;;;;3.30;3.00;;;21.70;40.10;;;;;;5030109;28;20096;-43
2020/12/07 10:46:05;;;;;;;3.50;3.20;;;21.70;40.10;;;;;;5031056;28;20045;-47
2020/12/07 10:48:32;;;;;;;3.00;2.80;;;21.70;40.20;;;;;;5024281;28;20029;-48
2020/12/07 10:50:57;;;;;;;3.47;2.78;;;21.70;40.50;;;;;;5028266;28;20030;-50
2020/12/07 10:53:26;;;;;;;4.10;3.17;;;21.60;40.60;;;;;;5025871;28;20754;-47
2020/12/07 10:55:52;;;;;;;4.15;3.28;;;21.60;40.70;;;;;;5031453;28;20029;-45
2020/12/07 10:58:19;;;;;;;3.72;3.03;;;21.60;40.80;;;;;;5032303;28;20892;-46
2020/12/07 11:00:45;;;;;;;3.25;2.95;;;21.50;40.90;;;;;;5027547;28;20069;-45
2020/12/07 11:03:11;;;;;;;3.47;3.13;;;21.50;41.00;;;;;;5028473;28;20078;-47
2020/12/07 11:05:38;;;;;;;3.50;3.20;;;21.50;41.20;;;;;;5029761;28;20036;-41
2020/12/07 11:08:12;;;;;;;3.63;3.33;;;21.40;41.10;;;;;;5026643;28;20037;-43
2020/12/07 11:10:38;;;;;;;3.08;2.88;;;21.40;41.20;;;;;;5026676;28;20386;-47
2020/12/07 11:13:10;;;;;;;3.65;3.08;;;21.40;41.20;;;;;;5020979;28;20044;-45
2020/12/07 11:15:36;;;;;;;3.53;3.25;;;21.30;41.30;;;;;;5018637;28;20022;-53
2020/12/07 11:18:01;;;;;;;3.83;3.33;;;21.30;41.30;;;;;;5024848;28;20585;-55
2020/12/07 11:20:27;;;;;;;3.90;3.22;;;21.20;41.50;;;;;;5031239;28;20501;-52
2020/12/07 11:22:53;;;;;;;3.50;3.20;;;21.20;41.70;;;;;;5027847;28;20029;-50
2020/12/07 11:25:18;;;;;;;3.63;2.55;;;21.10;41.60;;;;;;5023491;28;20743;-50
2020/12/07 11:27:44;;;;;;;3.53;3.20;;;21.10;41.70;;;;;;5026957;28;20108;-51
2020/12/07 11:30:09;;;;;;;3.58;3.25;;;21.00;42.00;;;;;;5030287;28;20351;-49
2020/12/07 11:32:35;;;;;;;3.38;2.88;;;21.00;42.00;;;;;;5024189;28;20518;-51
2020/12/07 11:35:01;;;;;;;3.40;2.67;;;21.00;41.80;;;;;;5025785;28;20029;-46
2020/12/07 11:37:26;;;;;;;2.65;2.45;;;21.00;41.80;;;;;;5027146;28;20109;-47
2020/12/07 11:40:07;;;;;;;3.20;2.90;;;21.20;41.70;;;;;;5023170;28;20053;-48
2020/12/07 11:42:49;;;;;;;3.95;2.67;;;21.30;41.40;;;;;;5030359;28;20120;-45
2020/12/07 11:45:15;;;;;;;2.40;2.20;;;21.40;41.20;;;;;;5028483;28;20037;-48
2020/12/07 11:47:40;;;;;;;3.20;2.90;;;21.50;41.10;;;;;;5030406;28;20662;-54
2020/12/07 11:50:06;;;;;;;2.65;2.28;;;21.50;41.00;;;;;;5016978;28;20554;-50
2020/12/07 11:52:32;;;;;;;2.50;2.20;;;21.60;41.10;;;;;;5012348;28;20037;-49
2020/12/07 11:54:57;;;;;;;3.85;2.30;;;21.70;41.00;;;;;;5019977;28;20495;-50
2020/12/07 11:57:23;;;;;;;4.05;2.17;;;21.60;41.10;;;;;;5024312;28;20033;-48
2020/12/07 11:59:48;;;;;;;1.88;1.70;;;21.60;41.20;;;;;;5026652;28;20104;-47
2020/12/07 12:02:14;;;;;;;2.97;2.53;;;21.70;41.10;;;;;;5026960;28;20132;-45
2020/12/07 12:04:39;;;;;;;3.08;2.03;;;21.70;41.10;;;;;;5029941;28;20037;-52
2020/12/07 12:07:06;;;;;;;2.55;1.92;;;21.70;41.00;;;;;;5012121;28;20036;-49
2020/12/07 12:09:36;;;;;;;2.90;2.55;;;21.70;41.10;;;;;;5033208;28;20068;-49
2020/12/07 12:12:03;;;;;;;1.92;1.77;;;21.80;41.70;;;;;;5020934;28;20018;-50
2020/12/07 12:14:28;;;;;;;2.30;2.10;;;21.80;41.20;;;;;;5029500;28;20030;-48
2020/12/07 12:16:54;;;;;;;2.38;2.10;;;21.80;41.20;;;;;;5023561;28;20099;-49
2020/12/07 12:19:19;;;;;;;2.60;2.40;;;21.80;41.20;;;;;;5023319;28;20033;-51
2020/12/07 12:21:51;;;;;;;2.47;2.17;;;21.80;41.20;;;;;;5015187;28;20025;-50
2020/12/07 12:24:19;;;;;;;2.40;2.22;;;21.90;41.20;;;;;;5024676;28;20542;-49
2020/12/07 12:26:46;;;;;;;3.13;2.72;;;21.90;41.20;;;;;;5026205;28;20083;-45
2020/12/07 12:29:12;;;;;;;3.47;2.25;;;22.00;41.20;;;;;;5012404;28;20030;-45
2020/12/07 12:31:38;;;;;;;2.70;2.35;;;22.00;41.20;;;;;;5020262;28;20099;-51
2020/12/07 12:34:04;;;;;;;3.25;2.97;;;22.00;41.30;;;;;;5024293;28;20263;-46
2020/12/07 12:36:30;;;;;;;2.58;2.33;;;22.00;41.10;;;;;;5025640;28;20498;-50
2020/12/07 12:38:56;;;;;;;2.95;2.67;;;22.00;41.50;;;;;;5027474;28;20378;-50
2020/12/07 12:41:22;;;;;;;3.88;3.03;;;22.00;41.30;;;;;;5028326;28;20036;-50
2020/12/07 12:43:48;;;;;;;3.05;2.75;;;22.00;41.90;;;;;;5030100;28;20036;-49
2020/12/07 12:46:14;;;;;;;2.72;2.53;;;22.00;41.50;;;;;;5029449;28;20041;-51
2020/12/07 12:48:40;;;;;;;3.33;2.72;;;22.00;41.50;;;;;;5008557;28;20033;-51
2020/12/07 12:51:07;;;;;;;3.70;2.95;;;21.90;41.50;;;;;;5028561;28;20026;-49
2020/12/07 12:53:33;;;;;;;3.50;3.20;;;21.90;41.60;;;;;;5033696;28;20379;-47
2020/12/07 12:55:58;;;;;;;4.05;3.58;;;21.90;41.60;;;;;;5033120;28;20040;-47
2020/12/07 12:58:25;;;;;;;3.72;3.42;;;21.90;41.80;;;;;;5031645;28;20041;-46
2020/12/07 13:00:50;;;;;;;3.83;3.15;;;21.80;41.80;;;;;;5012257;28;20517;-44
2020/12/07 13:03:16;;;;;;;3.97;3.47;;;21.80;42.00;;;;;;5029290;28;20061;-50
2020/12/07 13:05:42;;;;;;;4.80;4.20;;;21.80;42.00;;;;;;5019804;28;20038;-46
2020/12/07 13:08:08;;;;;;;4.30;3.90;;;21.80;42.10;;;;;;5027831;28;20131;-43
2020/12/07 13:10:34;;;;;;;4.38;3.97;;;21.70;42.20;;;;;;5025677;28;20033;-44